Time;durP1;ratioP1;P1;durP2;ratioP2;P2;SDS_P1;SDS_P2;PMS_P1;PMS_P2;Temp;Humidity;BMP_temperature;BMP_pressure;BME280_temperature;BME280_humidity;BME280_pressure;Samples;Min_cycle;Max_cycle;Signal;HPM_P1;HPM_P2
2023/06/11 00:00:36;;;;;;;10.88;9.88;;;15.70;99.90;;;;;;4995916;28;20125;-58
2023/06/11 00:03:04;;;;;;;11.35;10.45;;;15.70;99.90;;;;;;4997368;28;20026;-58
2023/06/11 00:05:30;;;;;;;11.18;10.38;;;15.70;99.90;;;;;;4996572;28;20053;-56
2023/06/11 00:08:00;;;;;;;11.30;10.50;;;15.70;99.90;;;;;;4993129;28;20471;-57
2023/06/11 00:10:26;;;;;;;12.77;11.77;;;15.70;99.90;;;;;;4993320;28;20033;-57
2023/06/11 00:12:51;;;;;;;18.98;11.02;;;15.60;99.90;;;;;;4996114;28;20034;-57
2023/06/11 00:15:17;;;;;;;12.23;11.23;;;15.60;99.90;;;;;;4998719;28;20080;-58
2023/06/11 00:17:42;;;;;;;12.50;11.55;;;15.50;99.90;;;;;;4995434;28;20402;-57
2023/06/11 00:20:11;;;;;;;12.25;11.35;;;15.50;99.90;;;;;;4993045;28;20084;-57
2023/06/11 00:22:38;;;;;;;12.90;11.32;;;15.50;99.90;;;;;;4992382;28;20097;-57
2023/06/11 00:25:06;;;;;;;13.90;12.70;;;15.40;99.90;;;;;;4995109;28;20034;-57
2023/06/11 00:27:34;;;;;;;13.93;12.93;;;15.30;99.90;;;;;;4997258;28;20033;-58
2023/06/11 00:30:03;;;;;;;13.48;12.38;;;15.10;99.90;;;;;;4990328;28;20506;-59
2023/06/11 00:32:29;;;;;;;14.00;12.73;;;15.00;99.90;;;;;;4996330;28;20033;-57
2023/06/11 00:34:55;;;;;;;13.77;12.68;;;14.90;99.90;;;;;;4996036;28;20110;-58
2023/06/11 00:37:22;;;;;;;13.88;12.68;;;14.90;99.90;;;;;;4994796;28;20093;-58
2023/06/11 00:39:48;;;;;;;14.40;13.07;;;14.80;99.90;;;;;;4993996;28;20074;-58
2023/06/11 00:42:13;;;;;;;14.52;13.27;;;14.70;99.90;;;;;;4994635;28;20917;-57
2023/06/11 00:44:39;;;;;;;13.63;12.45;;;14.70;99.90;;;;;;4995258;28;20108;-59
2023/06/11 00:47:06;;;;;;;13.43;12.50;;;14.70;99.90;;;;;;4997232;28;20122;-58
2023/06/11 00:49:32;;;;;;;13.43;12.32;;;14.70;99.90;;;;;;4998799;28;20121;-58
2023/06/11 00:51:58;;;;;;;13.48;12.38;;;14.70;99.90;;;;;;4993081;28;20120;-57
2023/06/11 00:54:25;;;;;;;13.52;12.52;;;14.70;99.90;;;;;;4996829;28;20677;-57
2023/06/11 00:56:51;;;;;;;13.73;12.70;;;14.80;99.90;;;;;;4999194;28;20038;-57
2023/06/11 00:59:17;;;;;;;15.10;12.57;;;14.80;99.90;;;;;;4997480;28;20132;-57
2023/06/11 01:02:05;;;;;;;12.48;11.57;;;14.80;99.90;;;;;;4996643;28;20065;-58
2023/06/11 01:04:33;;;;;;;14.80;13.30;;;14.80;99.90;;;;;;4998968;28;20529;-58
2023/06/11 01:07:05;;;;;;;14.30;13.00;;;14.90;99.90;;;;;;4997067;28;20030;-58
2023/06/11 01:09:32;;;;;;;13.23;12.23;;;14.90;99.90;;;;;;4995171;28;20049;-58
2023/06/11 01:11:58;;;;;;;14.13;12.98;;;14.80;99.90;;;;;;4994187;28;20628;-58
2023/06/11 01:14:24;;;;;;;14.80;13.27;;;14.80;99.90;;;;;;4995631;28;20090;-58
2023/06/11 01:17:04;;;;;;;13.05;12.00;;;14.70;99.90;;;;;;4998675;28;20053;-58
2023/06/11 01:19:33;;;;;;;13.07;12.07;;;14.60;99.90;;;;;;4996115;28;20026;-57
2023/06/11 01:22:08;;;;;;;13.23;12.32;;;14.40;99.90;;;;;;4993545;28;20026;-58
2023/06/11 01:25:10;;;;;;;13.20;12.00;;;14.20;99.90;;;;;;4998193;28;20026;-57
2023/06/11 01:27:59;;;;;;;14.27;13.18;;;14.00;99.90;;;;;;5000646;28;20093;-57
2023/06/11 01:30:25;;;;;;;14.18;12.98;;;14.00;99.90;;;;;;4997392;28;20180;-58
2023/06/11 01:32:53;;;;;;;14.63;13.32;;;13.90;99.90;;;;;;5001673;28;20092;-58
2023/06/11 01:35:19;;;;;;;13.68;12.57;;;13.80;99.90;;;;;;4999783;28;20120;-57
2023/06/11 01:37:45;;;;;;;13.68;12.68;;;13.80;99.90;;;;;;4997721;28;20042;-57
2023/06/11 01:40:14;;;;;;;16.02;14.07;;;13.70;99.90;;;;;;4996899;28;20084;-58
2023/06/11 01:42:40;;;;;;;14.05;12.95;;;13.70;99.90;;;;;;5001330;28;20878;-56
2023/06/11 01:45:07;;;;;;;14.60;13.25;;;13.70;99.90;;;;;;4999375;28;20514;-56
2023/06/11 01:47:33;;;;;;;14.73;13.73;;;13.60;99.90;;;;;;4998086;28;20073;-58
2023/06/11 01:49:59;;;;;;;14.13;12.65;;;13.60;99.90;;;;;;5000428;28;20029;-58
2023/06/11 01:52:25;;;;;;;16.33;14.18;;;13.60;99.90;;;;;;5000575;28;20034;-57
2023/06/11 01:54:51;;;;;;;16.13;14.82;;;13.50;99.90;;;;;;4998949;28;20532;-58
2023/06/11 01:57:17;;;;;;;14.48;13.38;;;13.50;99.90;;;;;;4996595;28;20030;-58
2023/06/11 01:59:43;;;;;;;15.38;14.10;;;13.50;99.90;;;;;;5000157;28;20030;-58
2023/06/11 02:02:08;;;;;;;14.88;13.85;;;13.50;99.90;;;;;;4995216;28;20026;-58
2023/06/11 02:04:34;;;;;;;18.98;15.07;;;13.40;99.90;;;;;;4999307;28;20026;-58
2023/06/11 02:07:00;;;;;;;16.25;15.07;;;13.40;99.90;;;;;;4998791;28;20035;-57
2023/06/11 02:09:25;;;;;;;15.68;14.52;;;13.40;99.90;;;;;;4996319;28;20109;-58
2023/06/11 02:11:51;;;;;;;15.75;14.65;;;13.40;99.90;;;;;;4995811;28;20062;-57
2023/06/11 02:14:16;;;;;;;15.88;14.57;;;13.40;99.90;;;;;;4999888;28;20546;-57
2023/06/11 02:16:42;;;;;;;17.73;16.27;;;13.40;99.90;;;;;;5000019;28;20026;-58
2023/06/11 02:19:08;;;;;;;15.23;14.02;;;13.40;99.90;;;;;;4998345;28;20038;-58
2023/06/11 02:21:33;;;;;;;16.10;14.50;;;13.40;99.90;;;;;;4998242;28;20041;-57
2023/06/11 02:23:59;;;;;;;15.80;14.60;;;13.40;99.90;;;;;;4997851;28;20037;-58
2023/06/11 02:26:25;;;;;;;16.08;14.80;;;13.30;99.90;;;;;;4998429;28;20038;-58
2023/06/11 02:28:51;;;;;;;16.98;15.57;;;13.30;99.90;;;;;;4997607;28;20594;-57
2023/06/11 02:31:17;;;;;;;15.20;14.20;;;13.20;99.90;;;;;;4994645;28;20014;-57
2023/06/11 02:33:42;;;;;;;18.08;16.33;;;13.20;99.90;;;;;;4998551;28;20034;-58
2023/06/11 02:36:08;;;;;;;15.55;14.45;;;13.20;99.90;;;;;;4996128;28;20100;-57
2023/06/11 02:38:34;;;;;;;15.98;14.55;;;13.10;99.90;;;;;;4997097;28;20426;-57
2023/06/11 02:41:00;;;;;;;16.02;14.57;;;13.10;99.90;;;;;;4998573;28;20030;-58
2023/06/11 02:43:25;;;;;;;16.08;14.88;;;13.10;99.90;;;;;;4995731;28;20105;-58
2023/06/11 02:45:51;;;;;;;16.13;14.90;;;13.10;99.90;;;;;;4995686;28;20120;-56
2023/06/11 02:48:17;;;;;;;16.27;14.85;;;13.10;99.90;;;;;;4999846;28;20400;-57
2023/06/11 02:50:42;;;;;;;16.23;14.93;;;13.00;99.90;;;;;;4998177;28;20375;-56
2023/06/11 02:53:08;;;;;;;18.05;16.30;;;13.00;99.90;;;;;;4998658;28;20510;-57
2023/06/11 02:55:34;;;;;;;16.63;15.32;;;13.00;99.90;;;;;;4998699;28;20441;-58
2023/06/11 02:57:59;;;;;;;16.88;15.68;;;13.10;99.90;;;;;;4998107;28;20542;-57
2023/06/11 03:00:25;;;;;;;18.20;16.73;;;13.10;99.90;;;;;;4998602;28;20041;-58
2023/06/11 03:02:51;;;;;;;15.52;14.27;;;13.00;99.90;;;;;;4997380;28;20463;-58
2023/06/11 03:05:16;;;;;;;17.10;15.85;;;13.00;99.90;;;;;;4998785;28;20457;-56
2023/06/11 03:07:42;;;;;;;16.88;15.50;;;13.00;99.90;;;;;;4998248;28;20034;-58
2023/06/11 03:10:08;;;;;;;15.80;14.50;;;12.90;99.90;;;;;;4998824;28;20049;-58
2023/06/11 03:12:34;;;;;;;18.48;17.08;;;12.90;99.90;;;;;;4998476;28;20034;-57
2023/06/11 03:14:59;;;;;;;16.95;15.75;;;12.90;99.90;;;;;;4995409;28;20039;-57
2023/06/11 03:17:25;;;;;;;17.33;15.82;;;12.90;99.90;;;;;;4994170;28;20025;-58
2023/06/11 03:19:50;;;;;;;17.05;15.88;;;12.90;99.90;;;;;;4997185;28;20100;-57
2023/06/11 03:22:16;;;;;;;15.82;14.63;;;12.80;99.90;;;;;;4997901;28;20144;-56
2023/06/11 03:24:42;;;;;;;15.40;14.10;;;12.70;99.90;;;;;;4997480;28;20034;-58
2023/06/11 03:27:08;;;;;;;14.05;13.10;;;12.70;99.90;;;;;;4996195;28;20050;-57
2023/06/11 03:29:34;;;;;;;14.27;13.05;;;12.60;99.90;;;;;;4996849;28;20105;-58
2023/06/11 03:32:00;;;;;;;12.85;11.95;;;12.50;99.90;;;;;;4997941;28;20545;-58
2023/06/11 03:34:25;;;;;;;14.10;12.90;;;12.40;99.90;;;;;;4998322;28;20027;-57
2023/06/11 03:36:52;;;;;;;14.82;13.73;;;12.40;99.90;;;;;;4996439;28;20913;-58
2023/06/11 03:39:17;;;;;;;14.25;13.15;;;12.40;99.90;;;;;;4998259;28;20070;-59
2023/06/11 03:41:43;;;;;;;15.40;14.20;;;12.40;99.90;;;;;;4996778;28;20050;-58
2023/06/11 03:44:08;;;;;;;13.18;12.25;;;12.40;99.90;;;;;;4997556;28;20141;-56
2023/06/11 03:46:34;;;;;;;13.23;12.32;;;12.30;99.90;;;;;;4997306;28;20025;-57
2023/06/11 03:49:00;;;;;;;13.30;12.30;;;12.30;99.90;;;;;;4995874;28;20450;-58
2023/06/11 03:51:26;;;;;;;14.65;13.32;;;12.30;99.90;;;;;;5000066;28;20037;-57
2023/06/11 03:53:51;;;;;;;13.93;12.63;;;12.20;99.90;;;;;;4996237;28;20030;-58
2023/06/11 03:56:17;;;;;;;13.88;12.65;;;12.20;99.90;;;;;;4994147;28;20033;-58
2023/06/11 03:58:43;;;;;;;13.18;12.27;;;12.20;99.90;;;;;;4998613;28;20026;-57
2023/06/11 04:01:08;;;;;;;12.73;11.85;;;12.20;99.90;;;;;;4996028;28;20030;-57
2023/06/11 04:03:34;;;;;;;12.23;11.32;;;12.20;99.90;;;;;;4995705;28;20528;-58
2023/06/11 04:06:00;;;;;;;11.85;11.02;;;12.20;99.90;;;;;;4994087;28;20449;-57
2023/06/11 04:08:26;;;;;;;10.95;10.15;;;12.20;99.90;;;;;;4999056;28;20537;-58
2023/06/11 04:10:52;;;;;;;12.15;11.27;;;12.20;99.90;;;;;;5000199;28;20034;-58
2023/06/11 04:13:17;;;;;;;11.75;10.73;;;12.30;99.90;;;;;;5000162;28;20360;-57
2023/06/11 04:15:43;;;;;;;15.60;14.30;;;12.30;99.90;;;;;;4993123;28;20033;-58
2023/06/11 04:18:10;;;;;;;15.52;14.32;;;12.30;99.90;;;;;;4995395;28;20030;-57
2023/06/11 04:20:36;;;;;;;14.27;13.18;;;12.30;99.90;;;;;;4993146;28;20109;-57
2023/06/11 04:23:01;;;;;;;15.13;14.02;;;12.30;99.90;;;;;;4996150;28;20022;-58
2023/06/11 04:25:27;;;;;;;16.30;14.90;;;12.40;99.90;;;;;;5001235;28;20033;-58
2023/06/11 04:27:53;;;;;;;15.50;14.40;;;12.40;99.90;;;;;;4998974;28;20481;-58
2023/06/11 04:30:20;;;;;;;16.23;15.13;;;12.50;99.90;;;;;;4997091;28;20022;-58
2023/06/11 04:32:47;;;;;;;16.88;15.60;;;12.50;99.90;;;;;;4994178;28;20034;-57
2023/06/11 04:35:12;;;;;;;15.48;14.45;;;12.60;99.90;;;;;;4998008;28;20024;-58
2023/06/11 04:37:39;;;;;;;17.00;15.57;;;12.60;99.90;;;;;;4996738;28;20018;-57
2023/06/11 04:40:10;;;;;;;16.98;15.57;;;12.60;99.90;;;;;;4993179;28;20037;-56
2023/06/11 04:42:42;;;;;;;17.02;15.60;;;12.70;99.90;;;;;;4998388;28;20108;-58
2023/06/11 04:45:09;;;;;;;16.05;14.73;;;12.70;99.90;;;;;;4997206;28;20105;-56
2023/06/11 04:47:38;;;;;;;16.48;15.18;;;12.80;99.90;;;;;;4994164;28;20028;-58
2023/06/11 04:50:05;;;;;;;18.00;16.60;;;12.90;99.90;;;;;;4996247;28;20034;-57
2023/06/11 04:52:32;;;;;;;17.25;15.75;;;12.90;99.90;;;;;;4994274;28;20070;-57
2023/06/11 04:55:01;;;;;;;17.52;16.17;;;13.00;99.90;;;;;;4993584;28;20045;-58
2023/06/11 04:57:28;;;;;;;17.55;16.25;;;13.00;99.90;;;;;;4996821;28;20034;-58
2023/06/11 04:59:53;;;;;;;17.17;15.80;;;13.10;99.90;;;;;;5004040;28;20045;-57
2023/06/11 05:02:20;;;;;;;18.00;16.42;;;13.20;99.90;;;;;;5000005;28;20031;-57
2023/06/11 05:04:49;;;;;;;18.17;16.63;;;13.30;99.90;;;;;;5001250;28;20038;-58
2023/06/11 05:07:17;;;;;;;18.25;16.88;;;13.30;99.90;;;;;;4999462;28;20572;-58
2023/06/11 05:09:43;;;;;;;19.23;17.55;;;13.40;99.90;;;;;;4997517;28;20125;-57
2023/06/11 05:12:09;;;;;;;18.38;16.90;;;13.50;99.90;;;;;;4998558;28;20129;-58
2023/06/11 05:14:35;;;;;;;18.85;17.30;;;13.60;99.90;;;;;;4999252;28;20450;-57
2023/06/11 05:17:01;;;;;;;18.92;17.27;;;13.60;99.90;;;;;;4999468;28;20061;-56
2023/06/11 05:19:27;;;;;;;18.52;17.08;;;13.70;99.90;;;;;;5000943;28;20065;-58
2023/06/11 05:21:52;;;;;;;17.90;16.40;;;13.80;99.90;;;;;;5000112;28;20053;-58
2023/06/11 05:24:19;;;;;;;19.45;17.95;;;13.90;99.90;;;;;;5002169;28;20027;-58
2023/06/11 05:26:45;;;;;;;18.90;17.60;;;14.00;99.90;;;;;;4997839;28;20037;-58
2023/06/11 05:29:12;;;;;;;18.30;16.95;;;14.10;99.90;;;;;;5001576;28;20375;-58
2023/06/11 05:31:38;;;;;;;18.10;16.67;;;14.30;99.90;;;;;;5001990;28;20064;-58
2023/06/11 05:34:04;;;;;;;17.67;16.45;;;14.40;99.90;;;;;;5001000;28;20084;-58
2023/06/11 05:36:31;;;;;;;18.63;17.27;;;14.60;99.90;;;;;;5004026;28;20122;-57
2023/06/11 05:38:57;;;;;;;19.23;17.83;;;14.70;99.90;;;;;;5005891;28;20034;-56
2023/06/11 05:41:22;;;;;;;18.60;17.15;;;14.80;99.90;;;;;;5000478;28;20077;-57
2023/06/11 05:43:48;;;;;;;20.38;18.67;;;15.00;99.90;;;;;;4997965;28;20045;-57
2023/06/11 05:46:15;;;;;;;17.33;15.95;;;15.20;99.90;;;;;;5001723;28;20022;-59
2023/06/11 05:48:41;;;;;;;20.38;18.65;;;15.30;99.90;;;;;;5003816;28;20040;-58
2023/06/11 05:51:07;;;;;;;14.32;13.23;;;15.50;99.90;;;;;;5004087;28;20057;-58
2023/06/11 05:53:33;;;;;;;15.00;12.68;;;15.60;99.90;;;;;;5000357;28;20042;-58
2023/06/11 05:56:03;;;;;;;13.18;12.13;;;15.70;99.90;;;;;;4997593;28;20034;-58
2023/06/11 05:58:33;;;;;;;13.83;12.60;;;15.90;99.90;;;;;;4996856;28;20549;-58
2023/06/11 06:01:03;;;;;;;20.70;13.52;;;16.00;99.90;;;;;;4999802;28;20118;-58
2023/06/11 06:03:33;;;;;;;14.40;12.93;;;16.00;99.90;;;;;;4999418;28;20052;-58
2023/06/11 06:06:03;;;;;;;16.92;12.73;;;16.10;99.90;;;;;;4999952;28;20037;-58
2023/06/11 06:08:29;;;;;;;12.68;11.50;;;16.20;99.90;;;;;;4997579;28;20026;-57
2023/06/11 06:10:55;;;;;;;11.95;10.68;;;16.30;99.90;;;;;;5013990;28;20037;-59
2023/06/11 06:13:23;;;;;;;11.30;10.30;;;16.40;99.90;;;;;;4997977;28;20399;-58
2023/06/11 06:15:48;;;;;;;12.40;11.20;;;16.60;99.90;;;;;;5001353;28;20035;-58
2023/06/11 06:18:15;;;;;;;11.48;10.60;;;16.70;99.90;;;;;;4999404;28;20037;-58
2023/06/11 06:20:41;;;;;;;11.90;10.63;;;16.80;99.90;;;;;;5001434;28;20038;-58
2023/06/11 06:23:07;;;;;;;10.77;9.77;;;16.90;99.90;;;;;;4997951;28;20030;-58
2023/06/11 06:25:36;;;;;;;11.43;9.45;;;17.00;99.90;;;;;;4997222;28;20032;-58
2023/06/11 06:28:01;;;;;;;10.85;10.05;;;17.10;99.90;;;;;;4997889;28;20035;-59
2023/06/11 06:30:27;;;;;;;10.23;9.23;;;17.20;99.90;;;;;;4994931;28;20458;-59
2023/06/11 06:32:53;;;;;;;10.63;9.80;;;17.30;99.90;;;;;;4999061;28;20049;-59
2023/06/11 06:35:18;;;;;;;10.35;9.40;;;17.40;99.90;;;;;;4996695;28;20572;-58
2023/06/11 06:37:44;;;;;;;8.90;8.13;;;17.60;99.90;;;;;;4998351;28;20026;-59
2023/06/11 06:40:12;;;;;;;7.40;6.78;;;17.70;99.90;;;;;;5000193;28;20085;-59
2023/06/11 06:42:38;;;;;;;7.65;6.95;;;17.80;99.90;;;;;;4999181;28;20121;-60
2023/06/11 06:45:04;;;;;;;11.07;8.05;;;18.10;99.90;;;;;;4998226;28;20411;-59
2023/06/11 06:47:30;;;;;;;12.20;7.95;;;18.20;99.90;;;;;;4993853;28;20084;-59
2023/06/11 06:49:55;;;;;;;7.32;6.70;;;18.50;99.90;;;;;;4998433;28;20041;-58
2023/06/11 06:52:21;;;;;;;7.03;6.35;;;18.50;99.90;;;;;;4996776;28;20022;-58
2023/06/11 06:54:48;;;;;;;8.10;6.10;;;18.60;99.90;;;;;;4993134;28;20041;-59
2023/06/11 06:57:14;;;;;;;9.25;6.43;;;18.80;99.90;;;;;;4996474;28;20062;-60
2023/06/11 06:59:40;;;;;;;6.32;5.72;;;18.80;99.90;;;;;;4999407;28;20046;-58
2023/06/11 07:02:05;;;;;;;7.03;5.90;;;18.90;99.90;;;;;;5001826;28;20026;-58
2023/06/11 07:04:31;;;;;;;8.43;5.70;;;18.90;99.90;;;;;;4995348;28;21010;-59
2023/06/11 07:06:57;;;;;;;4.82;4.32;;;19.20;99.90;;;;;;5003120;28;20144;-59
2023/06/11 07:09:22;;;;;;;5.60;4.45;;;19.30;99.90;;;;;;4993966;28;20492;-58
2023/06/11 07:11:48;;;;;;;5.28;4.25;;;19.40;99.90;;;;;;4997473;28;20041;-57
2023/06/11 07:14:14;;;;;;;5.78;4.03;;;19.60;99.90;;;;;;4997912;28;20034;-59
2023/06/11 07:16:40;;;;;;;11.10;4.97;;;19.80;99.90;;;;;;4993958;28;20094;-59
2023/06/11 07:19:05;;;;;;;5.15;4.63;;;19.90;99.90;;;;;;4998654;28;20121;-58
2023/06/11 07:21:32;;;;;;;5.95;5.03;;;20.10;99.90;;;;;;4996827;28;20032;-60
2023/06/11 07:23:58;;;;;;;10.55;4.05;;;20.20;99.90;;;;;;4997389;28;20117;-60
2023/06/11 07:26:25;;;;;;;11.30;4.53;;;20.30;98.60;;;;;;4997568;28;20379;-58
2023/06/11 07:28:51;;;;;;;10.25;4.35;;;20.40;98.00;;;;;;5000278;28;20097;-59
2023/06/11 07:31:16;;;;;;;8.48;3.90;;;20.50;90.70;;;;;;4998311;28;20129;-59
2023/06/11 07:33:43;;;;;;;8.43;4.72;;;20.60;91.10;;;;;;4997705;28;20027;-58
2023/06/11 07:36:08;;;;;;;6.97;4.03;;;20.70;89.50;;;;;;4996859;28;20478;-59
2023/06/11 07:38:34;;;;;;;4.38;3.95;;;20.90;90.40;;;;;;4996489;28;20045;-59
2023/06/11 07:41:01;;;;;;;3.63;3.33;;;21.00;86.90;;;;;;4997420;28;20029;-59
2023/06/11 07:43:27;;;;;;;6.20;3.55;;;21.10;85.40;;;;;;4997365;28;20034;-59
2023/06/11 07:45:52;;;;;;;6.60;4.10;;;21.20;85.50;;;;;;4998052;28;20030;-59
2023/06/11 07:48:18;;;;;;;8.40;4.22;;;21.30;77.20;;;;;;4998356;28;20092;-58
2023/06/11 07:50:44;;;;;;;5.18;3.80;;;21.50;74.50;;;;;;5000319;28;20553;-58
2023/06/11 07:53:12;;;;;;;4.45;3.63;;;21.60;72.30;;;;;;4995838;28;20022;-58
2023/06/11 07:55:38;;;;;;;4.50;4.00;;;21.60;75.00;;;;;;4996118;28;20038;-59
2023/06/11 07:58:04;;;;;;;4.55;3.70;;;21.70;76.70;;;;;;4997800;28;20474;-59
2023/06/11 08:00:30;;;;;;;5.78;4.20;;;21.70;75.60;;;;;;4995569;28;20030;-59
2023/06/11 08:02:55;;;;;;;3.97;3.53;;;21.80;72.80;;;;;;4998717;28;20054;-58
2023/06/11 08:05:21;;;;;;;5.88;3.28;;;21.80;70.20;;;;;;4997004;28;20018;-58
2023/06/11 08:07:48;;;;;;;5.80;3.58;;;21.90;67.80;;;;;;4996188;28;20038;-60
2023/06/11 08:10:14;;;;;;;3.40;3.05;;;22.00;71.30;;;;;;4993940;28;20014;-59
2023/06/11 08:12:40;;;;;;;3.67;3.28;;;22.20;69.00;;;;;;4998413;28;20080;-58
2023/06/11 08:15:07;;;;;;;10.02;4.22;;;22.40;66.80;;;;;;4997961;28;20018;-58
2023/06/11 08:17:32;;;;;;;6.03;3.35;;;22.60;66.10;;;;;;4995807;28;20026;-59
2023/06/11 08:19:59;;;;;;;10.23;3.60;;;22.60;63.90;;;;;;4997247;28;20032;-59
2023/06/11 08:22:25;;;;;;;4.80;3.65;;;22.70;64.70;;;;;;4996191;28;20018;-59
2023/06/11 08:24:51;;;;;;;3.92;3.63;;;22.80;66.10;;;;;;4998096;28;20050;-57
2023/06/11 08:27:16;;;;;;;5.53;3.45;;;22.80;64.00;;;;;;4998063;28;20022;-60
2023/06/11 08:29:42;;;;;;;5.72;3.60;;;22.90;62.30;;;;;;4992269;28;20106;-60
2023/06/11 08:32:08;;;;;;;4.90;3.90;;;22.90;64.20;;;;;;4997220;28;20022;-59
2023/06/11 08:34:33;;;;;;;5.57;3.13;;;23.00;66.00;;;;;;4997158;28;20073;-60
2023/06/11 08:37:00;;;;;;;5.32;3.30;;;23.10;63.80;;;;;;4999491;28;20034;-59
2023/06/11 08:39:26;;;;;;;7.40;4.00;;;23.10;63.90;;;;;;5000392;28;20793;-59
2023/06/11 08:41:52;;;;;;;7.55;3.35;;;23.20;68.10;;;;;;4999218;28;20065;-59
2023/06/11 08:44:17;;;;;;;5.85;3.65;;;23.30;62.40;;;;;;5001196;28;20093;-58
2023/06/11 08:46:44;;;;;;;4.15;3.65;;;23.30;62.60;;;;;;4997080;28;20029;-59
2023/06/11 08:49:21;;;;;;;10.13;3.65;;;23.40;61.70;;;;;;4999221;28;20038;-60
2023/06/11 08:51:47;;;;;;;5.22;4.30;;;23.50;65.00;;;;;;4998040;28;20117;-60
2023/06/11 08:54:14;;;;;;;4.55;3.63;;;23.50;66.30;;;;;;4997101;28;20038;-60
2023/06/11 08:56:40;;;;;;;4.72;4.07;;;23.50;64.00;;;;;;5002036;28;20049;-58
2023/06/11 08:59:06;;;;;;;6.28;3.55;;;23.50;64.40;;;;;;5000578;28;20108;-59
2023/06/11 09:01:32;;;;;;;4.78;3.95;;;23.60;62.40;;;;;;5000028;28;20172;-59
2023/06/11 09:03:58;;;;;;;9.95;4.07;;;23.70;60.90;;;;;;4999200;28;20121;-58
2023/06/11 09:06:24;;;;;;;5.72;3.63;;;23.90;60.50;;;;;;4998030;28;20033;-59
2023/06/11 09:09:05;;;;;;;5.78;3.45;;;23.90;62.10;;;;;;4995235;28;20449;-60
2023/06/11 09:11:34;;;;;;;;;;;24.00;61.60;;;;;;5005243;28;20153;-59
2023/06/11 09:14:01;;;;;;;6.57;4.20;;;24.00;57.80;;;;;;5000771;28;19905;-59
2023/06/11 09:16:26;;;;;;;4.60;3.67;;;24.10;59.50;;;;;;5001736;28;20026;-59
2023/06/11 09:18:55;;;;;;;6.80;3.97;;;24.10;58.60;;;;;;5002730;28;20526;-59
2023/06/11 09:21:24;;;;;;;4.60;3.33;;;24.30;59.30;;;;;;4999437;28;20038;-59
2023/06/11 09:23:49;;;;;;;5.85;3.85;;;24.40;60.20;;;;;;5001280;28;20110;-60
2023/06/11 09:26:18;;;;;;;5.07;3.67;;;24.50;60.00;;;;;;4996550;28;20792;-58
2023/06/11 09:28:48;;;;;;;4.63;4.05;;;24.60;58.80;;;;;;4999086;28;20046;-59
2023/06/11 09:31:18;;;;;;;5.55;4.05;;;24.80;58.30;;;;;;4997668;28;20062;-60
2023/06/11 09:33:44;;;;;;;6.17;3.97;;;24.90;58.80;;;;;;4999910;28;20130;-61
2023/06/11 09:36:10;;;;;;;5.53;4.53;;;25.10;59.80;;;;;;4999512;28;20415;-58
2023/06/11 09:38:35;;;;;;;7.50;4.38;;;25.10;59.20;;;;;;5004169;28;20052;-59
2023/06/11 09:41:06;;;;;;;4.43;3.85;;;25.30;58.80;;;;;;4999778;28;20394;-59
2023/06/11 09:43:31;;;;;;;4.78;3.50;;;25.30;58.40;;;;;;4999444;28;20029;-59
2023/06/11 09:45:58;;;;;;;4.47;3.72;;;25.40;58.10;;;;;;5000365;28;20026;-60
2023/06/11 09:48:24;;;;;;;6.72;5.03;;;25.40;56.10;;;;;;4998100;28;20027;-58
2023/06/11 09:50:51;;;;;;;4.45;3.58;;;25.50;56.10;;;;;;4999667;28;20049;-59
2023/06/11 09:53:22;;;;;;;4.30;3.90;;;25.50;56.30;;;;;;4996488;28;20518;-58
2023/06/11 09:55:51;;;;;;;6.30;3.70;;;25.60;56.60;;;;;;4998207;28;20068;-59
2023/06/11 09:58:18;;;;;;;4.65;3.40;;;25.70;54.60;;;;;;5000913;28;20033;-59
2023/06/11 10:00:47;;;;;;;4.35;3.75;;;25.70;53.90;;;;;;4999317;28;20089;-58
2023/06/11 10:03:13;;;;;;;4.03;3.42;;;25.80;54.70;;;;;;5001114;28;20030;-59
2023/06/11 10:05:39;;;;;;;4.57;3.88;;;25.80;54.80;;;;;;4999396;28;20040;-59
2023/06/11 10:08:12;;;;;;;6.28;3.67;;;25.90;52.70;;;;;;4998599;28;20487;-58
2023/06/11 10:10:44;;;;;;;4.78;3.38;;;26.00;53.30;;;;;;4997737;28;20026;-59
2023/06/11 10:13:09;;;;;;;7.43;3.00;;;26.00;52.40;;;;;;4996034;28;20038;-58
2023/06/11 10:15:36;;;;;;;11.70;3.58;;;26.00;54.00;;;;;;4998849;28;20030;-59
2023/06/11 10:18:12;;;;;;;3.85;3.50;;;26.10;51.30;;;;;;4995939;28;20030;-58
2023/06/11 10:20:49;;;;;;;4.00;3.55;;;26.20;54.70;;;;;;5001162;28;20040;-59
2023/06/11 10:23:15;;;;;;;3.55;3.25;;;26.30;53.50;;;;;;5000196;28;20047;-58
2023/06/11 10:25:41;;;;;;;3.95;3.20;;;26.30;53.10;;;;;;5002075;28;20439;-60
2023/06/11 10:28:08;;;;;;;7.30;3.35;;;26.40;54.10;;;;;;4998816;28;20093;-59
2023/06/11 10:30:34;;;;;;;4.50;3.22;;;26.30;52.70;;;;;;4997987;28;20026;-59
2023/06/11 10:33:00;;;;;;;4.00;3.60;;;26.30;52.80;;;;;;4996762;28;20034;-59
2023/06/11 10:35:32;;;;;;;7.78;3.38;;;26.40;51.80;;;;;;4998979;28;20037;-59
2023/06/11 10:38:03;;;;;;;4.00;3.60;;;26.30;52.60;;;;;;4997905;28;20026;-59
2023/06/11 10:40:37;;;;;;;8.07;3.90;;;26.30;55.50;;;;;;4999663;28;20072;-59
2023/06/11 10:43:16;;;;;;;5.28;3.65;;;26.40;60.50;;;;;;4999080;28;20561;-59
2023/06/11 10:45:42;;;;;;;3.97;3.28;;;26.50;55.60;;;;;;4994602;28;20031;-59
2023/06/11 10:48:08;;;;;;;4.82;3.55;;;26.60;54.90;;;;;;4999854;28;20033;-61
2023/06/11 10:50:34;;;;;;;4.35;3.90;;;26.60;51.30;;;;;;4998159;28;20494;-60
2023/06/11 10:53:06;;;;;;;3.45;3.15;;;26.60;51.60;;;;;;4999960;28;20026;-59
2023/06/11 10:55:32;;;;;;;4.32;3.92;;;26.70;49.40;;;;;;4995140;28;20026;-60
2023/06/11 10:57:59;;;;;;;5.35;3.38;;;26.70;51.00;;;;;;4998505;28;20084;-59
2023/06/11 11:00:34;;;;;;;4.50;4.03;;;26.60;51.40;;;;;;4998549;28;20042;-59
2023/06/11 11:03:04;;;;;;;4.78;3.53;;;26.60;50.40;;;;;;4998988;28;20033;-60
2023/06/11 11:05:30;;;;;;;6.10;3.50;;;26.50;52.20;;;;;;4996641;28;20023;-58
2023/06/11 11:07:58;;;;;;;4.63;3.45;;;26.60;53.00;;;;;;4996829;28;20029;-59
2023/06/11 11:10:26;;;;;;;5.00;3.42;;;26.60;51.30;;;;;;4997768;28;20129;-60
2023/06/11 11:12:52;;;;;;;5.55;3.35;;;26.70;56.10;;;;;;4995680;28;20042;-60
2023/06/11 11:15:18;;;;;;;5.50;3.35;;;26.70;50.20;;;;;;5002075;28;20026;-59
2023/06/11 11:17:45;;;;;;;3.65;2.70;;;26.70;48.80;;;;;;4993967;28;20397;-60
2023/06/11 11:20:17;;;;;;;5.80;3.75;;;26.70;50.70;;;;;;5015323;28;20049;-59
2023/06/11 11:22:55;;;;;;;8.55;4.15;;;26.70;50.60;;;;;;4992633;28;20018;-59
2023/06/11 11:25:27;;;;;;;5.85;3.50;;;26.60;50.00;;;;;;5003123;28;20665;-59
2023/06/11 11:27:53;;;;;;;4.15;3.75;;;26.50;51.80;;;;;;5005417;28;20180;-59
2023/06/11 11:30:19;;;;;;;4.20;3.80;;;26.60;52.50;;;;;;4996820;28;20113;-59
2023/06/11 11:32:45;;;;;;;4.05;3.28;;;26.50;50.90;;;;;;5000110;28;20022;-60
2023/06/11 11:35:13;;;;;;;5.93;3.88;;;26.60;51.70;;;;;;4998747;28;20033;-59
2023/06/11 11:37:39;;;;;;;5.30;3.58;;;26.70;48.70;;;;;;4999892;28;20022;-61
2023/06/11 11:40:08;;;;;;;4.57;3.17;;;26.80;50.50;;;;;;4997519;28;20074;-59
2023/06/11 11:42:55;;;;;;;3.55;3.25;;;27.10;51.30;;;;;;5001294;28;20478;-58
2023/06/11 11:45:32;;;;;;;3.70;3.40;;;27.20;49.50;;;;;;5002297;28;20037;-59
2023/06/11 11:47:59;;;;;;;3.20;3.00;;;27.20;50.60;;;;;;5000855;28;20077;-59
2023/06/11 11:50:27;;;;;;;5.68;3.38;;;27.30;49.40;;;;;;4996953;28;20494;-59
2023/06/11 11:53:06;;;;;;;6.40;3.55;;;27.50;50.80;;;;;;4999642;28;20092;-58
2023/06/11 11:55:34;;;;;;;4.85;3.47;;;27.70;49.20;;;;;;4997144;28;20367;-62
2023/06/11 11:58:08;;;;;;;4.30;3.30;;;27.90;48.70;;;;;;4998193;28;20444;-60
2023/06/11 12:00:35;;;;;;;4.05;2.90;;;27.80;48.70;;;;;;4999236;28;20031;-60
2023/06/11 12:03:09;;;;;;;4.32;3.05;;;27.80;49.70;;;;;;4998389;28;20026;-60
2023/06/11 12:05:36;;;;;;;3.80;3.00;;;28.00;50.40;;;;;;4996059;28;20045;-57
2023/06/11 12:08:02;;;;;;;4.45;3.50;;;28.10;48.20;;;;;;4999042;28;20117;-59
2023/06/11 12:10:28;;;;;;;3.40;3.10;;;28.30;48.80;;;;;;4999465;28;20022;-60
2023/06/11 12:12:54;;;;;;;4.85;3.60;;;28.30;50.10;;;;;;4997381;28;20546;-60
2023/06/11 12:15:19;;;;;;;3.80;3.50;;;28.30;50.40;;;;;;4997576;28;20073;-60
2023/06/11 12:17:45;;;;;;;4.07;3.60;;;28.30;51.60;;;;;;4995305;28;20031;-59
2023/06/11 12:20:12;;;;;;;3.20;2.90;;;28.10;49.30;;;;;;4997252;28;20033;-58
2023/06/11 12:22:38;;;;;;;4.65;3.28;;;27.70;50.50;;;;;;4996934;28;20026;-60
2023/06/11 12:25:04;;;;;;;4.20;3.40;;;27.40;50.60;;;;;;4996209;28;20497;-59
2023/06/11 12:27:30;;;;;;;4.50;3.53;;;27.30;49.30;;;;;;4994751;28;20026;-60
2023/06/11 12:29:57;;;;;;;4.97;2.92;;;27.40;50.10;;;;;;4996526;28;20034;-60
2023/06/11 12:32:25;;;;;;;6.65;3.65;;;27.50;51.40;;;;;;4998370;28;20034;-59
2023/06/11 12:34:50;;;;;;;5.10;3.40;;;27.70;52.10;;;;;;4997457;28;20033;-59